Time;durP1;ratioP1;P1;durP2;ratioP2;P2;SDS_P1;SDS_P2;PMS_P1;PMS_P2;Temp;Humidity;BMP_temperature;BMP_pressure;BME280_temperature;BME280_humidity;BME280_pressure;Samples;Min_cycle;Max_cycle;Signal;HPM_P1;HPM_P2
2021/12/04 00:01:12;;;;;;;508.30;463.63;;;5.70;99.90;;;;;;5063673;28;20470;-81
2021/12/04 00:03:39;;;;;;;503.37;458.90;;;5.70;99.90;;;;;;5063434;28;20263;-82
2021/12/04 00:06:10;;;;;;;501.37;456.67;;;5.80;99.90;;;;;;5063303;28;20209;-80
2021/12/04 00:08:36;;;;;;;495.20;451.80;;;5.80;99.90;;;;;;5050990;28;20559;-82
2021/12/04 00:11:03;;;;;;;496.27;452.93;;;5.80;99.90;;;;;;5036827;28;20185;-80
2021/12/04 00:13:29;;;;;;;489.63;447.50;;;5.70;99.90;;;;;;5066773;28;20384;-81
2021/12/04 00:15:55;;;;;;;491.00;448.63;;;5.70;99.90;;;;;;5052403;28;20198;-80
2021/12/04 00:18:22;;;;;;;489.27;446.97;;;5.70;99.90;;;;;;5061344;28;20193;-81
2021/12/04 00:20:48;;;;;;;486.33;444.87;;;5.60;99.90;;;;;;5045936;28;20630;-82
2021/12/04 00:23:13;;;;;;;488.93;447.07;;;5.60;99.90;;;;;;5063736;28;20209;-81
2021/12/04 00:25:39;;;;;;;483.43;442.20;;;5.60;99.90;;;;;;5067074;28;20668;-81
2021/12/04 00:28:06;;;;;;;480.43;439.03;;;5.60;99.90;;;;;;5069250;28;20716;-81
2021/12/04 00:30:32;;;;;;;483.63;442.43;;;5.60;99.90;;;;;;5051235;28;20190;-81
2021/12/04 00:33:03;;;;;;;477.87;436.60;;;5.60;99.90;;;;;;5034947;28;20203;-81
2021/12/04 00:43:17;;;;;;;472.10;430.67;;;5.60;99.90;;;;;;5068585;28;20263;-80
2021/12/04 00:51:35;;;;;;;471.13;430.70;;;5.70;99.90;;;;;;5052291;28;20320;-82
2021/12/04 00:54:01;;;;;;;474.47;432.63;;;5.70;99.90;;;;;;5060647;28;20202;-80
2021/12/04 00:56:27;;;;;;;474.53;432.90;;;5.80;99.90;;;;;;5067767;28;20197;-81
2021/12/04 00:58:52;;;;;;;469.23;427.93;;;5.70;99.90;;;;;;5067504;28;20194;-79
2021/12/04 01:01:20;;;;;;;475.53;434.17;;;5.80;99.90;;;;;;5043523;28;20208;-81
2021/12/04 01:03:46;;;;;;;475.10;435.23;;;5.80;99.90;;;;;;5064464;28;20837;-80
2021/12/04 01:06:12;;;;;;;464.83;424.47;;;5.90;99.90;;;;;;5059797;28;20225;-82
2021/12/04 01:08:38;;;;;;;462.33;422.47;;;5.90;99.90;;;;;;5062045;28;20202;-81
2021/12/04 01:11:04;;;;;;;461.80;422.17;;;5.90;99.90;;;;;;5050493;28;20190;-80
2021/12/04 01:13:33;;;;;;;462.10;422.57;;;5.90;99.90;;;;;;5067269;28;20245;-81
2021/12/04 01:15:58;;;;;;;461.87;421.70;;;5.80;99.90;;;;;;5065541;28;20194;-81
2021/12/04 01:18:24;;;;;;;462.20;421.87;;;5.90;99.90;;;;;;5061061;28;20194;-81
2021/12/04 01:20:50;;;;;;;458.23;418.27;;;5.90;99.90;;;;;;5062921;28;20715;-80
2021/12/04 01:23:16;;;;;;;463.07;422.97;;;5.90;99.90;;;;;;5049593;28;20225;-81
2021/12/04 01:25:43;;;;;;;458.60;419.20;;;5.90;99.90;;;;;;5050447;28;20649;-81
2021/12/04 01:28:09;;;;;;;455.97;416.60;;;6.00;99.90;;;;;;5063837;28;20271;-80
2021/12/04 01:30:35;;;;;;;457.17;417.83;;;5.90;99.90;;;;;;5065673;28;20197;-81
2021/12/04 01:33:01;;;;;;;459.53;419.90;;;5.90;99.90;;;;;;5049784;28;20250;-80
2021/12/04 01:35:27;;;;;;;469.03;430.13;;;5.90;99.90;;;;;;5066631;28;20221;-81
2021/12/04 01:37:52;;;;;;;455.67;416.67;;;5.90;99.90;;;;;;5045062;28;20210;-81
2021/12/04 01:40:19;;;;;;;452.87;414.13;;;5.90;99.90;;;;;;5061066;28;20201;-81
2021/12/04 01:42:45;;;;;;;447.83;410.13;;;5.80;99.90;;;;;;5033119;28;20224;-82
2021/12/04 01:45:11;;;;;;;447.70;408.77;;;5.80;99.90;;;;;;5059842;28;20202;-81
2021/12/04 01:47:37;;;;;;;446.87;408.27;;;5.80;99.90;;;;;;5061069;28;20216;-80
2021/12/04 01:50:05;;;;;;;443.30;405.47;;;5.70;99.90;;;;;;5076490;28;20198;-80
2021/12/04 01:52:31;;;;;;;438.60;400.73;;;5.70;99.90;;;;;;5061528;28;20774;-80
2021/12/04 01:54:57;;;;;;;438.77;400.63;;;5.80;99.90;;;;;;5045247;28;20198;-79
2021/12/04 01:57:24;;;;;;;432.70;394.63;;;5.80;99.90;;;;;;5061023;28;20202;-81
2021/12/04 01:59:50;;;;;;;424.50;387.37;;;5.80;99.90;;;;;;5049066;28;20603;-80
2021/12/04 02:02:16;;;;;;;419.70;383.80;;;5.90;99.90;;;;;;5050184;28;20746;-80
2021/12/04 02:04:42;;;;;;;412.73;376.70;;;5.90;99.90;;;;;;5061234;28;20221;-80
2021/12/04 02:07:09;;;;;;;409.10;373.83;;;6.00;99.90;;;;;;5034392;28;20185;-80
2021/12/04 02:09:36;;;;;;;412.50;375.87;;;5.90;99.90;;;;;;5044085;28;20698;-81
2021/12/04 02:12:05;;;;;;;408.47;372.70;;;6.00;99.90;;;;;;5057790;28;20186;-81
2021/12/04 02:14:31;;;;;;;406.77;371.67;;;5.90;99.90;;;;;;5060738;28;20186;-80
2021/12/04 02:16:57;;;;;;;405.17;370.07;;;6.00;99.90;;;;;;5028678;28;20254;-81
2021/12/04 02:19:24;;;;;;;408.80;372.03;;;6.00;99.90;;;;;;5041973;28;20587;-80
2021/12/04 02:21:49;;;;;;;398.97;364.77;;;6.00;99.90;;;;;;5033187;28;20663;-81
2021/12/04 02:24:15;;;;;;;398.10;362.97;;;6.00;99.90;;;;;;5064680;28;20215;-79
2021/12/04 02:26:41;;;;;;;391.40;356.73;;;6.00;99.90;;;;;;5050480;28;20654;-80
2021/12/04 02:29:07;;;;;;;390.90;357.07;;;6.00;99.90;;;;;;5045161;28;20564;-81
2021/12/04 02:31:32;;;;;;;389.03;355.67;;;6.00;99.90;;;;;;5033259;28;20273;-82
2021/12/04 02:33:58;;;;;;;388.87;354.00;;;6.00;99.90;;;;;;5067269;28;20228;-82
2021/12/04 02:36:24;;;;;;;387.70;353.67;;;6.00;99.90;;;;;;5061592;28;20786;-80
2021/12/04 02:38:51;;;;;;;382.77;349.87;;;6.00;99.90;;;;;;5049361;28;20194;-80
2021/12/04 02:41:19;;;;;;;378.67;345.53;;;6.10;99.90;;;;;;5034256;28;20196;-81
2021/12/04 02:43:45;;;;;;;377.37;345.00;;;6.00;99.90;;;;;;5033482;28;20637;-80
2021/12/04 02:46:12;;;;;;;373.37;340.97;;;6.10;99.90;;;;;;5062294;28;20273;-80
2021/12/04 02:48:38;;;;;;;373.23;340.93;;;6.00;99.90;;;;;;5049192;28;20197;-81
2021/12/04 02:51:03;;;;;;;369.80;337.83;;;6.00;99.90;;;;;;5066042;28;20275;-81
2021/12/04 02:53:29;;;;;;;371.77;339.60;;;6.00;99.90;;;;;;5049378;28;20707;-81
2021/12/04 02:55:55;;;;;;;374.97;341.37;;;6.00;99.90;;;;;;5061704;28;20779;-80
2021/12/04 02:58:21;;;;;;;370.77;339.27;;;6.10;99.90;;;;;;5059934;28;20194;-81
2021/12/04 03:00:49;;;;;;;365.90;333.03;;;6.10;99.90;;;;;;5061132;28;20265;-81
2021/12/04 03:03:17;;;;;;;369.30;336.30;;;6.10;99.90;;;;;;5045985;28;20290;-81
2021/12/04 03:05:46;;;;;;;367.23;334.50;;;6.10;99.90;;;;;;5043283;28;20205;-80
2021/12/04 03:08:12;;;;;;;366.70;333.83;;;6.10;99.90;;;;;;5053075;28;20288;-80
2021/12/04 03:10:38;;;;;;;369.33;337.27;;;6.10;99.90;;;;;;5038860;28;20212;-80
2021/12/04 03:13:07;;;;;;;366.87;334.50;;;6.10;99.90;;;;;;5067340;28;20242;-80
2021/12/04 03:15:33;;;;;;;366.87;334.93;;;6.10;99.90;;;;;;5040198;28;20220;-80
2021/12/04 03:17:59;;;;;;;363.83;331.13;;;6.10;99.90;;;;;;5068412;28;20216;-81
2021/12/04 03:20:25;;;;;;;360.53;329.47;;;6.10;99.90;;;;;;5049907;28;20205;-80
2021/12/04 03:22:58;;;;;;;362.77;330.57;;;6.10;99.90;;;;;;5055930;28;20210;-80
2021/12/04 03:25:24;;;;;;;362.17;330.70;;;6.20;99.90;;;;;;5083390;28;20186;-81
2021/12/04 03:27:50;;;;;;;363.83;331.00;;;6.20;99.90;;;;;;5051034;28;20189;-80
2021/12/04 03:30:38;;;;;;;358.33;327.47;;;6.20;99.90;;;;;;5065833;28;20231;-81
2021/12/04 03:41:13;;;;;;;360.53;327.10;;;6.20;99.90;;;;;;5068253;28;20273;-79
2021/12/04 03:43:39;;;;;;;357.53;325.53;;;6.30;99.90;;;;;;5072665;28;20612;-81
2021/12/04 03:46:06;;;;;;;359.10;325.90;;;6.30;99.90;;;;;;5074067;28;20204;-80
2021/12/04 03:51:03;;;;;;;356.70;324.23;;;6.30;99.90;;;;;;5056916;28;20643;-80
2021/12/04 03:53:29;;;;;;;357.87;325.57;;;6.30;99.90;;;;;;5069952;28;20314;-81
2021/12/04 03:55:56;;;;;;;361.07;328.60;;;6.20;99.90;;;;;;5073951;28;20216;-80
2021/12/04 03:58:22;;;;;;;360.63;327.47;;;6.30;99.90;;;;;;5055289;28;20604;-80
2021/12/04 04:00:48;;;;;;;359.70;326.87;;;6.30;99.90;;;;;;5066454;28;20225;-81
2021/12/04 04:03:15;;;;;;;362.63;327.80;;;6.30;99.90;;;;;;5067662;28;20221;-81
2021/12/04 04:05:41;;;;;;;362.47;328.47;;;6.30;99.90;;;;;;5066882;28;20206;-81
2021/12/04 04:08:08;;;;;;;361.17;327.60;;;6.30;99.90;;;;;;5055417;28;20185;-80
2021/12/04 04:10:34;;;;;;;358.90;325.80;;;6.30;99.90;;;;;;5055978;28;20189;-80
2021/12/04 04:12:59;;;;;;;362.60;329.10;;;6.30;99.90;;;;;;5057070;28;20807;-80
2021/12/04 04:15:25;;;;;;;357.40;324.43;;;6.30;99.90;;;;;;5056004;28;20201;-81
2021/12/04 04:17:52;;;;;;;361.10;327.10;;;6.30;99.90;;;;;;5066377;28;20681;-80
2021/12/04 04:20:20;;;;;;;361.93;327.40;;;6.30;99.90;;;;;;5068695;28;20212;-81
2021/12/04 04:22:48;;;;;;;361.60;328.67;;;6.30;99.90;;;;;;5085424;28;20295;-81
2021/12/04 04:25:16;;;;;;;367.40;333.43;;;6.30;99.90;;;;;;5063420;28;20706;-81
2021/12/04 04:27:42;;;;;;;363.87;330.73;;;6.20;99.90;;;;;;5063534;28;20197;-81
2021/12/04 04:30:15;;;;;;;370.23;336.67;;;6.20;99.90;;;;;;5053235;28;20264;-81
2021/12/04 04:32:42;;;;;;;369.07;334.57;;;6.20;99.90;;;;;;5064881;28;20276;-80
2021/12/04 04:35:10;;;;;;;370.93;335.10;;;6.20;99.90;;;;;;5046982;28;20224;-82
2021/12/04 05:01:56;;;;;;;351.83;321.43;;;6.40;99.90;;;;;;5068956;28;20210;-80
2021/12/04 05:13:18;;;;;;;342.83;314.63;;;6.50;99.90;;;;;;5067037;28;20203;-80
2021/12/04 05:20:39;;;;;;;339.07;311.77;;;6.40;99.90;;;;;;5061566;28;20209;-80
2021/12/04 05:23:07;;;;;;;337.93;310.70;;;6.40;99.90;;;;;;5048394;28;20217;-80
2021/12/04 05:25:35;;;;;;;337.93;311.43;;;6.30;99.90;;;;;;5062593;28;21945;-80
2021/12/04 05:28:06;;;;;;;335.37;308.97;;;6.30;99.90;;;;;;5050357;28;20228;-80
2021/12/04 05:30:32;;;;;;;334.60;307.30;;;6.30;99.90;;;;;;5061556;28;20188;-80
2021/12/04 05:32:58;;;;;;;327.60;302.13;;;6.30;99.90;;;;;;5078407;28;20186;-82
2021/12/04 05:35:24;;;;;;;332.20;306.33;;;6.30;99.90;;;;;;5061210;28;20210;-80
2021/12/04 05:37:50;;;;;;;333.30;307.37;;;6.30;99.90;;;;;;5061379;28;20267;-81
2021/12/04 05:40:16;;;;;;;329.20;303.83;;;6.40;99.90;;;;;;5065616;28;20291;-81
2021/12/04 05:42:46;;;;;;;326.10;301.17;;;6.40;99.90;;;;;;5066078;28;20195;-81
2021/12/04 05:45:20;;;;;;;321.10;296.53;;;6.30;99.90;;;;;;5027689;28;20190;-81
2021/12/04 05:48:00;;;;;;;321.13;296.80;;;6.30;99.90;;;;;;5061917;28;20218;-81
2021/12/04 05:50:42;;;;;;;324.20;298.80;;;6.20;99.90;;;;;;5062149;28;20189;-80
2021/12/04 05:55:53;;;;;;;324.27;298.73;;;6.10;99.90;;;;;;5067704;28;20231;-80
2021/12/04 05:58:28;;;;;;;324.67;299.23;;;6.10;99.90;;;;;;5067179;28;20201;-81
2021/12/04 06:00:57;;;;;;;328.77;303.23;;;6.10;99.90;;;;;;5067153;28;20189;-81
2021/12/04 06:03:23;;;;;;;328.00;302.97;;;6.10;99.90;;;;;;5061218;28;20683;-81
2021/12/04 06:05:49;;;;;;;326.60;301.50;;;6.20;99.90;;;;;;5062226;28;20178;-81
2021/12/04 06:08:15;;;;;;;327.07;302.10;;;6.20;99.90;;;;;;5061204;28;20320;-81
2021/12/04 06:10:41;;;;;;;322.83;298.17;;;6.20;99.90;;;;;;5066712;28;20638;-80
2021/12/04 06:13:07;;;;;;;325.90;301.80;;;6.20;99.90;;;;;;5033405;28;20259;-80
2021/12/04 06:15:33;;;;;;;325.00;300.33;;;6.20;99.90;;;;;;5060366;28;20190;-80
2021/12/04 06:17:59;;;;;;;321.43;296.97;;;6.20;99.90;;;;;;5067606;28;20207;-80
2021/12/04 06:23:09;;;;;;;322.33;297.47;;;6.20;99.90;;;;;;5061141;28;20216;-81
2021/12/04 06:25:35;;;;;;;325.00;300.20;;;6.30;99.90;;;;;;5067374;28;20549;-79
2021/12/04 06:28:01;;;;;;;322.83;298.87;;;6.20;99.90;;;;;;5034520;28;20196;-82
2021/12/04 06:30:28;;;;;;;323.87;298.83;;;6.10;99.90;;;;;;5064815;28;20598;-81
2021/12/04 06:32:54;;;;;;;322.20;297.30;;;6.10;99.90;;;;;;5061173;28;20201;-81
2021/12/04 06:35:22;;;;;;;325.17;300.50;;;6.00;99.90;;;;;;5049253;28;20206;-81
2021/12/04 06:37:48;;;;;;;327.97;302.83;;;6.00;99.90;;;;;;5064484;28;20559;-80
2021/12/04 06:40:17;;;;;;;335.97;310.97;;;6.00;99.90;;;;;;5043276;28;20520;-81
2021/12/04 06:42:44;;;;;;;330.97;306.10;;;5.90;99.90;;;;;;5063989;28;20231;-82
2021/12/04 06:45:12;;;;;;;334.00;308.83;;;5.90;99.90;;;;;;5048478;28;20217;-80
2021/12/04 06:47:41;;;;;;;330.73;304.00;;;5.90;99.90;;;;;;5061097;28;20294;-81
2021/12/04 06:50:14;;;;;;;337.63;312.07;;;5.80;99.90;;;;;;5062438;28;20194;-80
2021/12/04 06:52:44;;;;;;;336.93;311.43;;;5.80;99.90;;;;;;5033549;28;20600;-80
2021/12/04 06:55:10;;;;;;;338.03;313.20;;;5.80;99.90;;;;;;5033465;28;20190;-82
2021/12/04 06:57:38;;;;;;;332.10;307.30;;;5.90;99.90;;;;;;5033327;28;20201;-80
2021/12/04 07:00:09;;;;;;;328.97;304.97;;;5.90;99.90;;;;;;5064544;28;20317;-80
2021/12/04 07:02:35;;;;;;;331.97;307.63;;;5.90;99.90;;;;;;5064488;28;20562;-80
2021/12/04 07:05:01;;;;;;;328.67;304.27;;;5.90;99.90;;;;;;5065355;28;20213;-80
2021/12/04 07:07:28;;;;;;;338.40;313.50;;;5.80;99.90;;;;;;5048856;28;20186;-80
2021/12/04 07:09:54;;;;;;;340.03;315.13;;;5.70;99.90;;;;;;5048112;28;20563;-79
2021/12/04 07:12:19;;;;;;;338.93;313.23;;;5.80;99.90;;;;;;5032611;28;20193;-80
2021/12/04 07:14:45;;;;;;;336.00;308.50;;;5.80;99.90;;;;;;5049709;28;20559;-80
2021/12/04 07:17:11;;;;;;;331.20;306.07;;;5.80;99.90;;;;;;5065975;28;20188;-81
2021/12/04 07:19:37;;;;;;;336.47;310.97;;;5.70;99.90;;;;;;5049054;28;20236;-82
2021/12/04 07:22:03;;;;;;;335.03;309.97;;;5.70;99.90;;;;;;5074825;28;20204;-81
2021/12/04 07:24:31;;;;;;;336.43;311.33;;;5.60;99.90;;;;;;5074538;28;20190;-79
2021/12/04 07:26:57;;;;;;;336.53;307.57;;;5.60;99.90;;;;;;5064977;28;20666;-81
2021/12/04 07:29:23;;;;;;;352.50;322.47;;;5.60;99.90;;;;;;5049435;28;20189;-81
2021/12/04 07:31:48;;;;;;;371.87;339.90;;;5.60;99.90;;;;;;5049408;28;20252;-80
2021/12/04 07:34:14;;;;;;;378.90;346.43;;;5.60;99.90;;;;;;5061075;28;20562;-81
2021/12/04 07:36:40;;;;;;;383.07;353.27;;;5.60;99.90;;;;;;5046772;28;20217;-81
2021/12/04 07:39:06;;;;;;;387.53;354.90;;;5.60;99.90;;;;;;5058172;28;20273;-80
2021/12/04 07:41:33;;;;;;;388.57;354.73;;;5.60;99.90;;;;;;5064758;28;20194;-81
2021/12/04 07:43:59;;;;;;;381.70;349.43;;;5.60;99.90;;;;;;5061021;28;20186;-80
2021/12/04 07:46:25;;;;;;;374.53;342.97;;;5.50;99.90;;;;;;5061205;28;20270;-81
2021/12/04 07:48:50;;;;;;;373.90;343.73;;;5.50;99.90;;;;;;5051207;28;20205;-80
2021/12/04 07:51:19;;;;;;;379.10;348.50;;;5.40;99.90;;;;;;5050006;28;20395;-81
2021/12/04 07:53:48;;;;;;;368.10;336.87;;;5.40;99.90;;;;;;5050521;28;20190;-81
2021/12/04 07:56:15;;;;;;;367.07;333.53;;;5.50;99.90;;;;;;5037313;28;20677;-80
2021/12/04 07:58:42;;;;;;;363.73;335.43;;;5.50;99.90;;;;;;5063550;28;20189;-81
2021/12/04 08:01:09;;;;;;;361.63;332.67;;;5.50;99.90;;;;;;5066381;28;20250;-81
2021/12/04 08:03:36;;;;;;;352.90;322.80;;;5.50;99.90;;;;;;5064089;28;20213;-81
2021/12/04 08:06:01;;;;;;;356.07;324.70;;;5.50;99.90;;;;;;5051482;28;20554;-80
2021/12/04 08:08:27;;;;;;;352.50;324.77;;;5.60;99.90;;;;;;5052363;28;20202;-82
2021/12/04 08:10:53;;;;;;;349.23;321.20;;;5.60;99.90;;;;;;5035290;28;20181;-81
2021/12/04 08:13:18;;;;;;;351.73;322.77;;;5.60;99.90;;;;;;5050781;28;20200;-81
2021/12/04 08:15:44;;;;;;;349.77;321.87;;;5.60;99.90;;;;;;5052988;28;20221;-81
2021/12/04 08:18:10;;;;;;;347.27;319.43;;;5.70;99.90;;;;;;5070033;28;20193;-81
2021/12/04 08:20:36;;;;;;;344.70;315.97;;;5.70;99.90;;;;;;5064160;28;20206;-81
2021/12/04 08:23:04;;;;;;;339.10;311.23;;;5.70;99.90;;;;;;5065586;28;20208;-80
2021/12/04 08:25:31;;;;;;;336.37;308.97;;;5.70;99.90;;;;;;5063747;28;20186;-80
2021/12/04 08:27:57;;;;;;;325.70;298.80;;;5.70;99.90;;;;;;5069019;28;20182;-82
2021/12/04 08:30:26;;;;;;;323.13;298.27;;;5.70;99.90;;;;;;5036049;28;20592;-81
2021/12/04 08:32:56;;;;;;;310.70;285.13;;;5.80;99.90;;;;;;5064755;28;20624;-82
2021/12/04 08:35:25;;;;;;;304.00;279.93;;;5.80;99.90;;;;;;5063418;28;20205;-81
2021/12/04 08:37:54;;;;;;;299.37;275.73;;;5.80;99.90;;;;;;5064519;28;20206;-82
2021/12/04 08:40:21;;;;;;;301.27;276.67;;;5.80;99.90;;;;;;5064640;28;20181;-81
2021/12/04 08:42:47;;;;;;;293.97;270.47;;;5.70;99.90;;;;;;5063318;28;20236;-81
2021/12/04 08:45:14;;;;;;;300.50;277.30;;;5.70;99.90;;;;;;5052876;28;20193;-81
2021/12/04 08:47:41;;;;;;;294.33;270.57;;;5.70;99.90;;;;;;5046508;28;20596;-81
2021/12/04 08:50:11;;;;;;;297.93;273.53;;;5.80;99.90;;;;;;5064498;28;20209;-81
2021/12/04 08:52:38;;;;;;;289.03;266.07;;;5.80;99.90;;;;;;5063318;28;20222;-82
2021/12/04 08:55:05;;;;;;;288.43;264.50;;;5.90;99.90;;;;;;5083425;28;20281;-81
2021/12/04 08:57:31;;;;;;;292.97;268.17;;;5.90;99.90;;;;;;5066113;28;20681;-81
2021/12/04 09:00:00;;;;;;;291.47;267.77;;;5.90;99.90;;;;;;5034804;28;20194;-80
2021/12/04 09:02:26;;;;;;;285.73;262.27;;;6.00;99.90;;;;;;5079985;28;20221;-81
2021/12/04 09:04:54;;;;;;;291.90;266.83;;;6.00;99.90;;;;;;5059012;28;20684;-80
2021/12/04 09:07:20;;;;;;;286.13;262.43;;;6.00;99.90;;;;;;5066547;28;20208;-81
2021/12/04 09:09:47;;;;;;;284.63;259.43;;;6.10;99.90;;;;;;5066619;28;20205;-80
2021/12/04 09:12:14;;;;;;;279.47;255.53;;;6.10;99.90;;;;;;5063828;28;20722;-80
2021/12/04 09:14:42;;;;;;;289.90;264.10;;;6.10;99.90;;;;;;5061278;28;20609;-81
2021/12/04 09:17:11;;;;;;;285.43;260.87;;;6.10;99.90;;;;;;5061575;28;20632;-81
2021/12/04 09:19:37;;;;;;;288.90;264.83;;;6.10;99.90;;;;;;5061384;28;20220;-79
2021/12/04 09:22:06;;;;;;;283.93;259.83;;;6.20;99.90;;;;;;5062518;28;20229;-80
2021/12/04 09:24:42;;;;;;;283.57;258.33;;;6.20;99.90;;;;;;5043978;28;20282;-80
2021/12/04 09:27:19;;;;;;;278.73;254.60;;;6.30;99.90;;;;;;5037906;28;20220;-80
2021/12/04 09:29:58;;;;;;;281.20;257.60;;;6.20;99.90;;;;;;5047933;28;20190;-80
2021/12/04 10:00:18;;;;;;;247.00;228.03;;;6.30;99.90;;;;;;5064791;28;20181;-81
2021/12/04 10:11:47;;;;;;;239.50;219.50;;;6.40;99.90;;;;;;5080090;28;20258;-82
2021/12/04 10:19:42;;;;;;;244.70;225.07;;;6.50;99.90;;;;;;5061820;28;20280;-80
2021/12/04 10:33:19;;;;;;;240.60;219.20;;;6.40;99.90;;;;;;5061632;28;20255;-82
2021/12/04 10:35:47;;;;;;;244.07;221.77;;;6.40;99.90;;;;;;5060979;28;20186;-81
2021/12/04 10:38:19;;;;;;;253.87;232.03;;;6.30;99.90;;;;;;5061263;28;20182;-81
2021/12/04 10:40:47;;;;;;;252.17;229.10;;;6.20;99.90;;;;;;5083876;28;20278;-81
2021/12/04 10:43:22;;;;;;;257.03;233.07;;;6.20;99.90;;;;;;5061183;28;20224;-81
2021/12/04 10:45:55;;;;;;;249.13;225.53;;;6.20;99.90;;;;;;5065207;28;20177;-79
2021/12/04 10:48:27;;;;;;;264.57;239.83;;;6.20;99.90;;;;;;5064334;28;20192;-79
2021/12/04 10:53:46;;;;;;;273.33;246.03;;;6.10;99.90;;;;;;5061608;28;20292;-81
2021/12/04 10:56:27;;;;;;;266.17;239.67;;;6.10;99.90;;;;;;5065181;28;20841;-81
2021/12/04 11:04:45;;;;;;;269.20;245.37;;;6.20;99.90;;;;;;5062411;28;20200;-80
2021/12/04 11:26:41;;;;;;;259.13;235.07;;;6.40;99.90;;;;;;5062638;28;20608;-81
2021/12/04 11:40:23;;;;;;;262.60;239.47;;;6.30;99.90;;;;;;5062949;28;20259;-81
2021/12/04 11:42:58;;;;;;;264.10;240.40;;;6.30;99.90;;;;;;5063065;28;20270;-80
2021/12/04 11:45:33;;;;;;;270.27;246.30;;;6.40;99.90;;;;;;5055584;28;20173;-79
2021/12/04 11:48:05;;;;;;;269.93;246.20;;;6.40;99.90;;;;;;5053362;28;20741;-82
2021/12/04 11:50:37;;;;;;;262.70;239.67;;;6.40;99.90;;;;;;5071684;28;20762;-82
2021/12/04 11:53:17;;;;;;;268.07;244.83;;;6.50;99.90;;;;;;5067927;28;20235;-82
2021/12/04 11:55:45;;;;;;;256.40;233.33;;;6.50;99.90;;;;;;5067713;28;20195;-82
2021/12/04 11:58:33;;;;;;;269.53;246.53;;;6.40;99.90;;;;;;5068537;28;20255;-81
2021/12/04 12:01:03;;;;;;;282.13;258.20;;;6.50;99.90;;;;;;5082288;28;20197;-82
2021/12/04 12:03:34;;;;;;;352.83;325.20;;;6.50;99.90;;;;;;5067512;28;20202;-82
2021/12/04 12:06:05;;;;;;;407.37;375.60;;;6.50;99.90;;;;;;5069706;28;20180;-83
2021/12/04 12:08:36;;;;;;;497.63;459.57;;;6.50;99.90;;;;;;5067427;28;20241;-82
2021/12/04 12:11:26;;;;;;;596.93;550.30;;;6.50;99.90;;;;;;5081496;28;20201;-80
2021/12/04 12:13:58;;;;;;;658.70;609.00;;;6.60;99.90;;;;;;5069788;28;21232;-81
2021/12/04 12:16:29;;;;;;;701.17;648.67;;;6.60;99.90;;;;;;5065948;28;20214;-80
2021/12/04 12:19:08;;;;;;;785.13;725.17;;;6.60;99.90;;;;;;5055934;28;20284;-80
2021/12/04 12:21:53;;;;;;;776.20;716.00;;;6.60;99.90;;;;;;5067462;28;20555;-82
2021/12/04 12:33:30;;;;;;;773.10;712.50;;;6.60;99.90;;;;;;5063632;28;20211;-81
2021/12/04 12:36:10;;;;;;;787.47;726.27;;;6.50;99.90;;;;;;5065913;28;20523;-81
2021/12/04 12:38:54;;;;;;;783.90;722.93;;;6.50;99.90;;;;;;5066919;28;20697;-80
2021/12/04 12:41:41;;;;;;;786.47;724.63;;;6.50;99.90;;;;;;5064815;28;20198;-81
2021/12/04 12:44:14;;;;;;;781.33;719.73;;;6.50;99.90;;;;;;5065459;28;20186;-81
2021/12/04 12:46:52;;;;;;;773.87;712.13;;;6.50;99.90;;;;;;5070575;28;20204;-82
2021/12/04 12:49:20;;;;;;;777.83;716.50;;;6.50;99.90;;;;;;5064814;28;20202;-81
2021/12/04 12:52:06;;;;;;;778.47;716.47;;;6.50;99.90;;;;;;5065934;28;20306;-82
2021/12/04 12:54:59;;;;;;;784.43;722.87;;;6.50;99.90;;;;;;5066173;28;20787;-81
2021/12/04 12:57:29;;;;;;;782.13;720.03;;;6.50;99.90;;;;;;5070170;28;20210;-81
2021/12/04 13:11:46;;;;;;;749.57;688.07;;;6.50;99.90;;;;;;5066020;28;20264;-82
2021/12/04 13:14:20;;;;;;;748.00;687.20;;;6.50;99.90;;;;;;5069119;28;20182;-81
2021/12/04 13:16:55;;;;;;;751.77;690.87;;;6.50;99.90;;;;;;5068878;28;20869;-80
2021/12/04 13:19:23;;;;;;;749.87;689.27;;;6.50;99.90;;;;;;5062183;28;20204;-82
2021/12/04 13:21:53;;;;;;;751.27;690.40;;;6.50;99.90;;;;;;5052539;28;20190;-82
2021/12/04 13:24:28;;;;;;;761.20;700.60;;;6.50;99.90;;;;;;5061307;28;20189;-81
2021/12/04 13:26:56;;;;;;;754.20;693.90;;;6.50;99.90;;;;;;5076512;28;20219;-80
2021/12/04 13:29:26;;;;;;;753.53;693.07;;;6.40;99.90;;;;;;5052994;28;20190;-80
2021/12/04 13:31:58;;;;;;;755.97;695.60;;;6.40;99.90;;;;;;5070581;28;20181;-82
2021/12/04 13:34:28;;;;;;;754.67;694.27;;;6.30;99.90;;;;;;5066015;28;20197;-80
2021/12/04 13:36:54;;;;;;;751.33;690.93;;;6.30;99.90;;;;;;5063819;28;20686;-81
2021/12/04 13:39:21;;;;;;;757.97;697.70;;;6.40;99.90;;;;;;5029519;28;20186;-82
2021/12/04 13:41:49;;;;;;;750.33;690.33;;;6.40;99.90;;;;;;5045378;28;20264;-81
2021/12/04 13:44:17;;;;;;;768.93;708.57;;;6.40;99.90;;;;;;5046245;28;20190;-82
2021/12/04 13:46:47;;;;;;;753.67;693.57;;;6.40;99.90;;;;;;5064985;28;20604;-82
2021/12/04 13:49:17;;;;;;;756.63;696.33;;;6.40;99.90;;;;;;5064550;28;20196;-81
2021/12/04 13:51:50;;;;;;;765.83;705.10;;;6.50;99.90;;;;;;5061601;28;20229;-81
2021/12/04 13:54:16;;;;;;;757.70;696.63;;;6.40;99.90;;;;;;5065549;28;20190;-82
2021/12/04 13:56:43;;;;;;;758.73;697.53;;;6.40;99.90;;;;;;5061539;28;20186;-81
2021/12/04 13:59:11;;;;;;;781.00;719.20;;;6.50;99.90;;;;;;5036732;28;20190;-81
2021/12/04 14:01:42;;;;;;;767.47;705.87;;;6.50;99.90;;;;;;5051418;28;20201;-82
2021/12/04 14:04:16;;;;;;;763.50;702.40;;;6.40;99.90;;;;;;5063389;28;20301;-82
2021/12/04 14:06:48;;;;;;;769.67;708.77;;;6.40;99.90;;;;;;5065063;28;20184;-80
2021/12/04 14:09:14;;;;;;;761.00;700.33;;;6.40;99.90;;;;;;5061089;28;20198;-81
2021/12/04 14:11:42;;;;;;;763.10;702.10;;;6.50;99.90;;;;;;5053158;28;20595;-82
2021/12/04 14:14:16;;;;;;;771.10;710.20;;;6.40;99.90;;;;;;5045854;28;20673;-80
2021/12/04 14:16:44;;;;;;;766.20;705.27;;;6.50;99.90;;;;;;5061246;28;20188;-82
2021/12/04 14:19:29;;;;;;;765.83;704.57;;;6.50;99.90;;;;;;5067411;28;20205;-82
2021/12/04 14:21:57;;;;;;;758.97;697.73;;;6.50;99.90;;;;;;5066930;28;20210;-81
2021/12/04 14:24:28;;;;;;;760.63;699.13;;;6.50;99.90;;;;;;5046684;28;20185;-82
2021/12/04 14:26:57;;;;;;;780.60;719.40;;;6.50;99.90;;;;;;5046514;28;20506;-81
2021/12/04 14:29:25;;;;;;;781.63;719.80;;;6.50;99.90;;;;;;5067741;28;20674;-79
2021/12/04 14:31:52;;;;;;;768.60;706.70;;;6.40;99.90;;;;;;5069305;28;20773;-82
2021/12/04 14:34:20;;;;;;;770.17;707.70;;;6.40;99.90;;;;;;5063281;28;20205;-81
2021/12/04 14:36:46;;;;;;;768.73;706.87;;;6.40;99.90;;;;;;5062194;28;20252;-81
2021/12/04 14:39:22;;;;;;;770.90;709.00;;;6.40;99.90;;;;;;5062278;28;20239;-83
2021/12/04 14:41:47;;;;;;;772.03;710.17;;;6.50;99.90;;;;;;5066839;28;20185;-82
2021/12/04 14:44:13;;;;;;;774.20;712.30;;;6.50;99.90;;;;;;5051454;28;20185;-81
2021/12/04 14:46:39;;;;;;;774.63;712.87;;;6.60;99.90;;;;;;5068982;28;20190;-80
2021/12/04 14:49:09;;;;;;;775.17;713.37;;;6.80;99.90;;;;;;5033997;28;20208;-82
2021/12/04 14:51:35;;;;;;;789.57;727.47;;;6.90;99.90;;;;;;5068847;28;20322;-80
2021/12/04 14:54:01;;;;;;;790.40;727.93;;;6.90;99.90;;;;;;5035242;28;20193;-81
2021/12/04 14:56:29;;;;;;;776.17;714.63;;;6.90;99.90;;;;;;5061002;28;20217;-82
2021/12/04 14:58:55;;;;;;;767.80;707.20;;;7.00;99.90;;;;;;5078303;28;20235;-82
2021/12/04 15:01:24;;;;;;;759.03;699.03;;;7.00;99.90;;;;;;5051785;28;20220;-80
2021/12/04 15:03:59;;;;;;;742.03;682.63;;;7.10;99.90;;;;;;5062063;28;20654;-82
2021/12/04 15:06:28;;;;;;;732.87;674.40;;;7.10;99.90;;;;;;5062454;28;20173;-81
2021/12/04 15:08:59;;;;;;;716.70;659.03;;;7.00;99.90;;;;;;5061279;28;20182;-82
2021/12/04 15:11:31;;;;;;;712.40;655.57;;;7.00;99.90;;;;;;5064180;28;20212;-82
2021/12/04 15:14:10;;;;;;;546.93;501.17;;;7.00;99.90;;;;;;5062958;28;20177;-82
2021/12/04 15:16:46;;;;;;;509.33;466.73;;;6.90;99.90;;;;;;5067027;28;20235;-81
2021/12/04 15:19:18;;;;;;;480.30;440.40;;;6.80;99.90;;;;;;5084712;28;20295;-83
2021/12/04 15:21:51;;;;;;;466.23;428.80;;;6.80;99.90;;;;;;5061078;28;20193;-81
2021/12/04 15:24:28;;;;;;;467.90;432.80;;;6.80;99.90;;;;;;5059645;28;20194;-83
2021/12/04 15:26:57;;;;;;;468.17;431.73;;;6.70;99.90;;;;;;5067457;28;20192;-82